CheckWX is a tool to help pilots better visualize weather data.  It is not intended as a substitute for an official pre-flight weather briefing.

14:30:08 UTC

KCRG TAF
Jacksonville Executive at Craig Airport
Jacksonville, Florida, USA
KCRG 271742Z 2718/2818 20007KT P6SM VCSH SCT025 BKN050 TEMPO 2719/2723 VRB15G25KT 1SM TSRA BKN020CB FM280100 16006KT P6SM FEW030 SCT060 FM280900 20005KT 6SM BR FEW008 SCT020 FM281400 23007KT P6SM FEW020 SCT050

May-27@
18:00 UTC

May-27 @ 18:00 UTC

May-28@
01:00 UTC

May-28 @ 01:00 UTC

TAF KCRG 271742Z 2718/2818 20007KT P6SM VCSH SCT025 BKN050

Expired

Wind
  • 200° at 7 KTS
Conditions
Area Showers
Cloud Levels
  • Scattered at 2,500' AGL
  • Broken at 5,000' AGL

May-27@
19:00 UTC

May-27 @ 19:00 UTC

May-27@
23:00 UTC

May-27 @ 23:00 UTC

TEMPO 2719/2723 VRB15G25KT 1SM TSRA BKN020CB

Expired

Wind
  • Variable at 15 KTS
  • {Gusting to 25 KTS
Conditions
Thunderstorm, Rain
Cloud Levels
  • Broken at 2,000' AGL

May-28@
01:00 UTC

May-28 @ 01:00 UTC

May-28@
09:00 UTC

May-28 @ 09:00 UTC

FM280100 16006KT P6SM FEW030 SCT060

Expired

Wind
  • 160° at 6 KTS
Cloud Levels
  • Few at 3,000' AGL
  • Scattered at 6,000' AGL

May-28@
09:00 UTC

May-28 @ 09:00 UTC

May-28@
14:00 UTC

May-28 @ 14:00 UTC

FM280900 20005KT 6SM BR FEW008 SCT020

Expired

Wind
  • 200° at 5 KTS
Conditions
Mist
Cloud Levels
  • Few at 800' AGL
  • Scattered at 2,000' AGL

May-28@
14:00 UTC

May-28 @ 14:00 UTC

May-28@
18:00 UTC

May-28 @ 18:00 UTC

FM281400 23007KT P6SM FEW020 SCT050

From

From Standard forecast or significant change

Wind
  • 230° at 7 KTS
Cloud Levels
  • Few at 2,000' AGL
  • Scattered at 5,000' AGL